sensor_id;sensor_type;location;lat;lon;timestamp;P1;durP1;ratioP1;P2;durP2;ratioP2
60211;SDS011;46079;48.686;15.598;2023-04-06T00:00:59;7.10;;;1.73;;
60211;SDS011;46079;48.686;15.598;2023-04-06T00:03:24;6.47;;;1.67;;
60211;SDS011;46079;48.686;15.598;2023-04-06T00:05:50;5.28;;;1.50;;
60211;SDS011;46079;48.686;15.598;2023-04-06T00:08:16;5.28;;;1.60;;
60211;SDS011;46079;48.686;15.598;2023-04-06T00:10:41;4.05;;;1.23;;
60211;SDS011;46079;48.686;15.598;2023-04-06T00:13:07;6.05;;;1.70;;
60211;SDS011;46079;48.686;15.598;2023-04-06T00:15:33;6.07;;;1.60;;
60211;SDS011;46079;48.686;15.598;2023-04-06T00:17:58;6.13;;;1.55;;
60211;SDS011;46079;48.686;15.598;2023-04-06T00:20:24;5.97;;;1.77;;
60211;SDS011;46079;48.686;15.598;2023-04-06T00:22:50;5.70;;;1.70;;
60211;SDS011;46079;48.686;15.598;2023-04-06T00:25:16;5.22;;;1.77;;
60211;SDS011;46079;48.686;15.598;2023-04-06T00:27:41;5.43;;;1.50;;
60211;SDS011;46079;48.686;15.598;2023-04-06T00:30:07;5.50;;;1.50;;
60211;SDS011;46079;48.686;15.598;2023-04-06T00:32:34;7.53;;;1.75;;
60211;SDS011;46079;48.686;15.598;2023-04-06T00:35:01;6.32;;;1.40;;
60211;SDS011;46079;48.686;15.598;2023-04-06T00:37:31;4.65;;;1.45;;
60211;SDS011;46079;48.686;15.598;2023-04-06T00:39:57;7.75;;;1.60;;
60211;SDS011;46079;48.686;15.598;2023-04-06T00:42:22;4.38;;;1.48;;
60211;SDS011;46079;48.686;15.598;2023-04-06T00:44:54;5.68;;;1.50;;
60211;SDS011;46079;48.686;15.598;2023-04-06T00:47:23;5.93;;;1.83;;
60211;SDS011;46079;48.686;15.598;2023-04-06T00:49:50;6.78;;;1.70;;
60211;SDS011;46079;48.686;15.598;2023-04-06T00:52:15;5.25;;;1.55;;
60211;SDS011;46079;48.686;15.598;2023-04-06T00:54:41;5.07;;;1.45;;
60211;SDS011;46079;48.686;15.598;2023-04-06T00:57:06;5.82;;;1.65;;
60211;SDS011;46079;48.686;15.598;2023-04-06T00:59:32;5.97;;;1.65;;
60211;SDS011;46079;48.686;15.598;2023-04-06T01:01:57;4.50;;;1.40;;
60211;SDS011;46079;48.686;15.598;2023-04-06T01:04:23;4.32;;;1.27;;
60211;SDS011;46079;48.686;15.598;2023-04-06T01:06:49;6.03;;;1.60;;
60211;SDS011;46079;48.686;15.598;2023-04-06T01:09:16;5.13;;;1.58;;
60211;SDS011;46079;48.686;15.598;2023-04-06T01:11:42;6.90;;;1.63;;
60211;SDS011;46079;48.686;15.598;2023-04-06T01:14:07;7.03;;;1.65;;
60211;SDS011;46079;48.686;15.598;2023-04-06T01:16:33;5.05;;;1.50;;
60211;SDS011;46079;48.686;15.598;2023-04-06T01:18:59;5.07;;;1.50;;
60211;SDS011;46079;48.686;15.598;2023-04-06T01:21:24;4.82;;;1.42;;
60211;SDS011;46079;48.686;15.598;2023-04-06T01:23:50;5.85;;;1.60;;
60211;SDS011;46079;48.686;15.598;2023-04-06T01:26:16;5.68;;;1.40;;
60211;SDS011;46079;48.686;15.598;2023-04-06T01:28:42;6.40;;;1.60;;
60211;SDS011;46079;48.686;15.598;2023-04-06T01:31:08;5.78;;;1.52;;
60211;SDS011;46079;48.686;15.598;2023-04-06T01:33:34;4.97;;;1.50;;
60211;SDS011;46079;48.686;15.598;2023-04-06T01:36:00;6.90;;;1.75;;
60211;SDS011;46079;48.686;15.598;2023-04-06T01:38:26;5.75;;;1.73;;
60211;SDS011;46079;48.686;15.598;2023-04-06T01:40:51;6.97;;;1.85;;
60211;SDS011;46079;48.686;15.598;2023-04-06T01:43:18;4.60;;;1.50;;
60211;SDS011;46079;48.686;15.598;2023-04-06T01:45:43;4.53;;;1.48;;
60211;SDS011;46079;48.686;15.598;2023-04-06T01:48:09;6.68;;;1.92;;
60211;SDS011;46079;48.686;15.598;2023-04-06T01:50:35;5.80;;;1.75;;
60211;SDS011;46079;48.686;15.598;2023-04-06T01:53:00;4.88;;;1.50;;
60211;SDS011;46079;48.686;15.598;2023-04-06T01:55:26;6.32;;;1.73;;
60211;SDS011;46079;48.686;15.598;2023-04-06T01:57:51;6.03;;;1.80;;
60211;SDS011;46079;48.686;15.598;2023-04-06T02:00:17;5.60;;;1.58;;
60211;SDS011;46079;48.686;15.598;2023-04-06T02:02:42;8.10;;;1.75;;
60211;SDS011;46079;48.686;15.598;2023-04-06T02:05:08;5.57;;;1.65;;
60211;SDS011;46079;48.686;15.598;2023-04-06T02:07:34;7.28;;;1.80;;
60211;SDS011;46079;48.686;15.598;2023-04-06T02:09:59;6.03;;;1.70;;
60211;SDS011;46079;48.686;15.598;2023-04-06T02:12:24;5.50;;;1.63;;
60211;SDS011;46079;48.686;15.598;2023-04-06T02:14:50;5.43;;;1.65;;
60211;SDS011;46079;48.686;15.598;2023-04-06T02:17:16;5.85;;;1.70;;
60211;SDS011;46079;48.686;15.598;2023-04-06T02:19:42;5.97;;;1.70;;
60211;SDS011;46079;48.686;15.598;2023-04-06T02:22:07;5.57;;;1.50;;
60211;SDS011;46079;48.686;15.598;2023-04-06T02:24:32;6.93;;;1.63;;
60211;SDS011;46079;48.686;15.598;2023-04-06T02:26:58;5.97;;;1.58;;
60211;SDS011;46079;48.686;15.598;2023-04-06T02:29:23;5.60;;;1.70;;
60211;SDS011;46079;48.686;15.598;2023-04-06T02:31:49;5.65;;;1.52;;
60211;SDS011;46079;48.686;15.598;2023-04-06T02:34:15;6.25;;;1.50;;
60211;SDS011;46079;48.686;15.598;2023-04-06T02:36:46;7.13;;;1.85;;
60211;SDS011;46079;48.686;15.598;2023-04-06T02:39:12;7.53;;;1.85;;
60211;SDS011;46079;48.686;15.598;2023-04-06T02:41:38;5.95;;;1.70;;
60211;SDS011;46079;48.686;15.598;2023-04-06T02:44:03;6.30;;;1.70;;
60211;SDS011;46079;48.686;15.598;2023-04-06T02:46:30;5.65;;;1.55;;
60211;SDS011;46079;48.686;15.598;2023-04-06T02:48:56;6.05;;;1.60;;
60211;SDS011;46079;48.686;15.598;2023-04-06T02:51:21;5.22;;;1.50;;
60211;SDS011;46079;48.686;15.598;2023-04-06T02:53:47;5.13;;;1.65;;
60211;SDS011;46079;48.686;15.598;2023-04-06T02:56:12;6.40;;;1.63;;
60211;SDS011;46079;48.686;15.598;2023-04-06T02:58:38;5.75;;;1.80;;
60211;SDS011;46079;48.686;15.598;2023-04-06T03:01:03;6.75;;;1.67;;
60211;SDS011;46079;48.686;15.598;2023-04-06T03:03:29;5.90;;;1.60;;
60211;SDS011;46079;48.686;15.598;2023-04-06T03:05:55;6.35;;;1.40;;
60211;SDS011;46079;48.686;15.598;2023-04-06T03:08:23;5.63;;;1.70;;
60211;SDS011;46079;48.686;15.598;2023-04-06T03:10:49;4.80;;;1.33;;
60211;SDS011;46079;48.686;15.598;2023-04-06T03:13:15;10.38;;;2.05;;
60211;SDS011;46079;48.686;15.598;2023-04-06T03:15:42;6.60;;;1.60;;
60211;SDS011;46079;48.686;15.598;2023-04-06T03:18:07;6.05;;;1.65;;
60211;SDS011;46079;48.686;15.598;2023-04-06T03:20:33;7.10;;;1.60;;
60211;SDS011;46079;48.686;15.598;2023-04-06T03:22:58;6.75;;;1.63;;
60211;SDS011;46079;48.686;15.598;2023-04-06T03:25:24;6.10;;;1.70;;
60211;SDS011;46079;48.686;15.598;2023-04-06T03:27:50;5.75;;;1.50;;
60211;SDS011;46079;48.686;15.598;2023-04-06T03:30:15;5.22;;;1.60;;
60211;SDS011;46079;48.686;15.598;2023-04-06T03:32:45;5.95;;;1.65;;
60211;SDS011;46079;48.686;15.598;2023-04-06T03:35:11;5.05;;;1.50;;
60211;SDS011;46079;48.686;15.598;2023-04-06T03:37:36;6.38;;;1.48;;
60211;SDS011;46079;48.686;15.598;2023-04-06T03:40:02;4.72;;;1.40;;
60211;SDS011;46079;48.686;15.598;2023-04-06T03:42:29;5.38;;;1.60;;
60211;SDS011;46079;48.686;15.598;2023-04-06T03:44:54;6.15;;;1.65;;
60211;SDS011;46079;48.686;15.598;2023-04-06T03:47:20;5.45;;;1.70;;
60211;SDS011;46079;48.686;15.598;2023-04-06T03:49:45;5.65;;;1.42;;
60211;SDS011;46079;48.686;15.598;2023-04-06T03:52:11;5.10;;;1.60;;
60211;SDS011;46079;48.686;15.598;2023-04-06T03:54:36;5.50;;;1.60;;
60211;SDS011;46079;48.686;15.598;2023-04-06T03:57:02;5.93;;;1.60;;
60211;SDS011;46079;48.686;15.598;2023-04-06T03:59:28;6.13;;;1.67;;
60211;SDS011;46079;48.686;15.598;2023-04-06T04:01:54;4.82;;;1.45;;
60211;SDS011;46079;48.686;15.598;2023-04-06T04:04:19;6.40;;;1.67;;
60211;SDS011;46079;48.686;15.598;2023-04-06T04:06:45;4.43;;;1.50;;
60211;SDS011;46079;48.686;15.598;2023-04-06T04:09:10;5.13;;;1.60;;
60211;SDS011;46079;48.686;15.598;2023-04-06T04:11:36;5.68;;;1.50;;
60211;SDS011;46079;48.686;15.598;2023-04-06T04:14:01;5.78;;;1.52;;
60211;SDS011;46079;48.686;15.598;2023-04-06T04:16:27;5.93;;;1.70;;
60211;SDS011;46079;48.686;15.598;2023-04-06T04:18:52;6.57;;;1.55;;
60211;SDS011;46079;48.686;15.598;2023-04-06T04:21:18;6.13;;;1.70;;
60211;SDS011;46079;48.686;15.598;2023-04-06T04:23:43;5.75;;;1.70;;
60211;SDS011;46079;48.686;15.598;2023-04-06T04:26:09;5.47;;;1.55;;
60211;SDS011;46079;48.686;15.598;2023-04-06T04:28:35;5.85;;;1.63;;
60211;SDS011;46079;48.686;15.598;2023-04-06T04:31:00;4.82;;;1.40;;
60211;SDS011;46079;48.686;15.598;2023-04-06T04:33:26;4.53;;;1.35;;
60211;SDS011;46079;48.686;15.598;2023-04-06T04:35:51;5.45;;;1.70;;
60211;SDS011;46079;48.686;15.598;2023-04-06T04:38:17;4.82;;;1.50;;
60211;SDS011;46079;48.686;15.598;2023-04-06T04:40:43;5.60;;;1.60;;
60211;SDS011;46079;48.686;15.598;2023-04-06T04:43:08;5.85;;;1.63;;
60211;SDS011;46079;48.686;15.598;2023-04-06T04:45:34;6.35;;;1.77;;
60211;SDS011;46079;48.686;15.598;2023-04-06T04:47:59;4.45;;;1.35;;
60211;SDS011;46079;48.686;15.598;2023-04-06T04:50:24;5.90;;;1.60;;
60211;SDS011;46079;48.686;15.598;2023-04-06T04:52:50;5.85;;;1.50;;
60211;SDS011;46079;48.686;15.598;2023-04-06T04:55:15;5.80;;;1.75;;
60211;SDS011;46079;48.686;15.598;2023-04-06T04:57:42;5.80;;;1.63;;
60211;SDS011;46079;48.686;15.598;2023-04-06T05:00:08;5.28;;;1.60;;
60211;SDS011;46079;48.686;15.598;2023-04-06T05:02:33;6.82;;;1.85;;
60211;SDS011;46079;48.686;15.598;2023-04-06T05:04:59;5.65;;;1.70;;
60211;SDS011;46079;48.686;15.598;2023-04-06T05:07:25;6.05;;;1.55;;
60211;SDS011;46079;48.686;15.598;2023-04-06T05:09:50;6.10;;;1.65;;
60211;SDS011;46079;48.686;15.598;2023-04-06T05:12:16;4.57;;;1.50;;
60211;SDS011;46079;48.686;15.598;2023-04-06T05:14:41;5.70;;;1.60;;
60211;SDS011;46079;48.686;15.598;2023-04-06T05:17:07;5.45;;;1.65;;
60211;SDS011;46079;48.686;15.598;2023-04-06T05:19:33;7.35;;;1.70;;
60211;SDS011;46079;48.686;15.598;2023-04-06T05:21:58;5.53;;;1.48;;
60211;SDS011;46079;48.686;15.598;2023-04-06T05:24:24;5.53;;;1.80;;
60211;SDS011;46079;48.686;15.598;2023-04-06T05:26:50;4.97;;;1.60;;
60211;SDS011;46079;48.686;15.598;2023-04-06T05:29:16;5.45;;;1.65;;
60211;SDS011;46079;48.686;15.598;2023-04-06T05:31:41;10.32;;;3.83;;
60211;SDS011;46079;48.686;15.598;2023-04-06T05:34:07;10.88;;;4.15;;
60211;SDS011;46079;48.686;15.598;2023-04-06T05:36:34;12.02;;;4.63;;
60211;SDS011;46079;48.686;15.598;2023-04-06T05:39:00;12.45;;;4.90;;
60211;SDS011;46079;48.686;15.598;2023-04-06T05:41:25;10.68;;;4.47;;
60211;SDS011;46079;48.686;15.598;2023-04-06T05:43:51;10.02;;;4.45;;
60211;SDS011;46079;48.686;15.598;2023-04-06T05:46:16;13.15;;;5.03;;
60211;SDS011;46079;48.686;15.598;2023-04-06T05:48:43;10.60;;;4.22;;
60211;SDS011;46079;48.686;15.598;2023-04-06T05:51:08;10.18;;;4.50;;
60211;SDS011;46079;48.686;15.598;2023-04-06T05:53:34;9.68;;;4.22;;
60211;SDS011;46079;48.686;15.598;2023-04-06T05:56:02;8.68;;;3.60;;
60211;SDS011;46079;48.686;15.598;2023-04-06T05:58:28;9.43;;;3.40;;
60211;SDS011;46079;48.686;15.598;2023-04-06T06:00:57;9.07;;;2.72;;
60211;SDS011;46079;48.686;15.598;2023-04-06T06:03:23;6.22;;;2.20;;
60211;SDS011;46079;48.686;15.598;2023-04-06T06:05:49;7.70;;;2.50;;
60211;SDS011;46079;48.686;15.598;2023-04-06T06:08:14;7.72;;;2.20;;
60211;SDS011;46079;48.686;15.598;2023-04-06T06:10:40;6.60;;;2.10;;
60211;SDS011;46079;48.686;15.598;2023-04-06T06:13:05;6.30;;;1.95;;
60211;SDS011;46079;48.686;15.598;2023-04-06T06:15:31;6.30;;;2.08;;
60211;SDS011;46079;48.686;15.598;2023-04-06T06:17:56;10.80;;;2.25;;
60211;SDS011;46079;48.686;15.598;2023-04-06T06:20:22;7.57;;;2.10;;
60211;SDS011;46079;48.686;15.598;2023-04-06T06:22:47;7.35;;;2.40;;
60211;SDS011;46079;48.686;15.598;2023-04-06T06:25:13;6.20;;;1.88;;
60211;SDS011;46079;48.686;15.598;2023-04-06T06:27:40;13.48;;;2.03;;
60211;SDS011;46079;48.686;15.598;2023-04-06T06:30:08;7.70;;;2.10;;
60211;SDS011;46079;48.686;15.598;2023-04-06T06:32:33;8.57;;;1.90;;
60211;SDS011;46079;48.686;15.598;2023-04-06T06:34:59;6.55;;;2.10;;
60211;SDS011;46079;48.686;15.598;2023-04-06T06:37:25;7.60;;;2.10;;
60211;SDS011;46079;48.686;15.598;2023-04-06T06:39:50;6.50;;;1.90;;
60211;SDS011;46079;48.686;15.598;2023-04-06T06:42:18;6.88;;;2.08;;
60211;SDS011;46079;48.686;15.598;2023-04-06T06:44:44;8.27;;;2.15;;
60211;SDS011;46079;48.686;15.598;2023-04-06T06:47:10;5.85;;;1.88;;
60211;SDS011;46079;48.686;15.598;2023-04-06T06:49:35;6.35;;;2.00;;
60211;SDS011;46079;48.686;15.598;2023-04-06T06:52:01;6.20;;;1.90;;
60211;SDS011;46079;48.686;15.598;2023-04-06T06:54:26;6.68;;;2.00;;
60211;SDS011;46079;48.686;15.598;2023-04-06T06:56:51;5.78;;;1.73;;
60211;SDS011;46079;48.686;15.598;2023-04-06T06:59:17;8.02;;;2.10;;
60211;SDS011;46079;48.686;15.598;2023-04-06T07:01:42;7.13;;;2.13;;
60211;SDS011;46079;48.686;15.598;2023-04-06T07:04:11;7.85;;;2.20;;
60211;SDS011;46079;48.686;15.598;2023-04-06T07:06:36;6.90;;;1.88;;
60211;SDS011;46079;48.686;15.598;2023-04-06T07:09:02;6.88;;;2.10;;
60211;SDS011;46079;48.686;15.598;2023-04-06T07:11:30;6.65;;;2.00;;
60211;SDS011;46079;48.686;15.598;2023-04-06T07:13:56;7.50;;;2.15;;
60211;SDS011;46079;48.686;15.598;2023-04-06T07:16:21;6.18;;;1.77;;
60211;SDS011;46079;48.686;15.598;2023-04-06T07:18:47;6.20;;;2.00;;
60211;SDS011;46079;48.686;15.598;2023-04-06T07:21:12;6.20;;;1.98;;
60211;SDS011;46079;48.686;15.598;2023-04-06T07:23:38;6.35;;;1.83;;
60211;SDS011;46079;48.686;15.598;2023-04-06T07:26:03;6.85;;;1.98;;
60211;SDS011;46079;48.686;15.598;2023-04-06T07:28:29;5.93;;;1.95;;
60211;SDS011;46079;48.686;15.598;2023-04-06T07:30:55;7.38;;;1.95;;
60211;SDS011;46079;48.686;15.598;2023-04-06T07:33:21;6.15;;;1.92;;
60211;SDS011;46079;48.686;15.598;2023-04-06T07:35:46;5.93;;;1.73;;
60211;SDS011;46079;48.686;15.598;2023-04-06T07:38:12;7.18;;;1.92;;
60211;SDS011;46079;48.686;15.598;2023-04-06T07:40:38;6.45;;;2.00;;
60211;SDS011;46079;48.686;15.598;2023-04-06T07:43:03;6.20;;;1.77;;
60211;SDS011;46079;48.686;15.598;2023-04-06T07:45:29;6.40;;;1.90;;
60211;SDS011;46079;48.686;15.598;2023-04-06T07:47:55;6.75;;;1.95;;
60211;SDS011;46079;48.686;15.598;2023-04-06T07:50:20;5.38;;;1.77;;
60211;SDS011;46079;48.686;15.598;2023-04-06T07:52:46;6.40;;;1.80;;
60211;SDS011;46079;48.686;15.598;2023-04-06T07:55:11;6.82;;;1.83;;
60211;SDS011;46079;48.686;15.598;2023-04-06T07:57:37;6.68;;;1.90;;
60211;SDS011;46079;48.686;15.598;2023-04-06T08:00:02;6.47;;;1.98;;
60211;SDS011;46079;48.686;15.598;2023-04-06T08:02:29;6.07;;;1.98;;
60211;SDS011;46079;48.686;15.598;2023-04-06T08:04:56;5.53;;;1.77;;
60211;SDS011;46079;48.686;15.598;2023-04-06T08:07:22;6.22;;;1.85;;
60211;SDS011;46079;48.686;15.598;2023-04-06T08:09:47;5.18;;;1.80;;
60211;SDS011;46079;48.686;15.598;2023-04-06T08:12:13;6.13;;;1.63;;
60211;SDS011;46079;48.686;15.598;2023-04-06T08:14:39;6.65;;;1.60;;
60211;SDS011;46079;48.686;15.598;2023-04-06T08:17:04;5.32;;;1.60;;
60211;SDS011;46079;48.686;15.598;2023-04-06T08:19:29;6.10;;;1.70;;
60211;SDS011;46079;48.686;15.598;2023-04-06T08:21:55;5.72;;;1.63;;
60211;SDS011;46079;48.686;15.598;2023-04-06T08:24:20;6.05;;;1.85;;
60211;SDS011;46079;48.686;15.598;2023-04-06T08:26:46;7.10;;;2.08;;
60211;SDS011;46079;48.686;15.598;2023-04-06T08:29:11;5.45;;;1.67;;
60211;SDS011;46079;48.686;15.598;2023-04-06T08:31:37;4.75;;;1.50;;
60211;SDS011;46079;48.686;15.598;2023-04-06T08:34:03;5.82;;;1.60;;
60211;SDS011;46079;48.686;15.598;2023-04-06T08:36:30;5.63;;;1.70;;
60211;SDS011;46079;48.686;15.598;2023-04-06T08:38:56;6.07;;;1.70;;
60211;SDS011;46079;48.686;15.598;2023-04-06T08:41:22;5.65;;;1.80;;
60211;SDS011;46079;48.686;15.598;2023-04-06T08:44:05;5.95;;;1.67;;
60211;SDS011;46079;48.686;15.598;2023-04-06T08:46:31;6.15;;;1.80;;
60211;SDS011;46079;48.686;15.598;2023-04-06T08:49:00;6.25;;;1.73;;
60211;SDS011;46079;48.686;15.598;2023-04-06T08:51:27;4.70;;;1.53;;
60211;SDS011;46079;48.686;15.598;2023-04-06T08:53:55;5.20;;;1.55;;
60211;SDS011;46079;48.686;15.598;2023-04-06T08:56:22;8.07;;;1.95;;
60211;SDS011;46079;48.686;15.598;2023-04-06T08:58:50;7.07;;;2.00;;
60211;SDS011;46079;48.686;15.598;2023-04-06T09:01:17;5.78;;;1.75;;
60211;SDS011;46079;48.686;15.598;2023-04-06T09:03:46;5.88;;;1.80;;
60211;SDS011;46079;48.686;15.598;2023-04-06T09:06:13;5.53;;;1.85;;
60211;SDS011;46079;48.686;15.598;2023-04-06T09:08:39;5.35;;;1.50;;
60211;SDS011;46079;48.686;15.598;2023-04-06T09:11:06;5.32;;;1.80;;
60211;SDS011;46079;48.686;15.598;2023-04-06T09:13:43;5.43;;;1.70;;
60211;SDS011;46079;48.686;15.598;2023-04-06T09:16:10;4.70;;;1.50;;
60211;SDS011;46079;48.686;15.598;2023-04-06T09:18:36;5.20;;;1.67;;
60211;SDS011;46079;48.686;15.598;2023-04-06T09:21:02;5.78;;;1.70;;
60211;SDS011;46079;48.686;15.598;2023-04-06T09:23:29;5.32;;;1.73;;
60211;SDS011;46079;48.686;15.598;2023-04-06T09:31:07;5.22;;;1.70;;
60211;SDS011;46079;48.686;15.598;2023-04-06T09:33:37;8.93;;;2.00;;
60211;SDS011;46079;48.686;15.598;2023-04-06T09:36:03;5.80;;;1.60;;
60211;SDS011;46079;48.686;15.598;2023-04-06T09:38:29;5.88;;;1.90;;
60211;SDS011;46079;48.686;15.598;2023-04-06T09:40:54;5.88;;;1.58;;
60211;SDS011;46079;48.686;15.598;2023-04-06T09:43:26;6.03;;;1.65;;
60211;SDS011;46079;48.686;15.598;2023-04-06T09:45:52;5.38;;;1.50;;
60211;SDS011;46079;48.686;15.598;2023-04-06T09:48:19;4.80;;;1.30;;
60211;SDS011;46079;48.686;15.598;2023-04-06T09:50:46;5.78;;;1.50;;
60211;SDS011;46079;48.686;15.598;2023-04-06T09:53:14;5.35;;;1.52;;
60211;SDS011;46079;48.686;15.598;2023-04-06T09:55:44;5.85;;;1.70;;
60211;SDS011;46079;48.686;15.598;2023-04-06T09:58:14;5.60;;;1.70;;
60211;SDS011;46079;48.686;15.598;2023-04-06T10:06:04;5.38;;;1.55;;
60211;SDS011;46079;48.686;15.598;2023-04-06T10:08:33;5.85;;;1.70;;
60211;SDS011;46079;48.686;15.598;2023-04-06T10:11:02;5.80;;;1.67;;
60211;SDS011;46079;48.686;15.598;2023-04-06T10:13:28;5.20;;;1.67;;
60211;SDS011;46079;48.686;15.598;2023-04-06T10:15:54;5.72;;;1.70;;
60211;SDS011;46079;48.686;15.598;2023-04-06T10:18:20;5.90;;;1.67;;
60211;SDS011;46079;48.686;15.598;2023-04-06T10:20:50;7.13;;;1.70;;
60211;SDS011;46079;48.686;15.598;2023-04-06T10:26:22;5.00;;;1.50;;
60211;SDS011;46079;48.686;15.598;2023-04-06T10:28:50;5.55;;;1.70;;
60211;SDS011;46079;48.686;15.598;2023-04-06T10:31:24;5.13;;;1.50;;
60211;SDS011;46079;48.686;15.598;2023-04-06T10:33:56;5.53;;;1.50;;
60211;SDS011;46079;48.686;15.598;2023-04-06T10:36:32;5.80;;;1.70;;
60211;SDS011;46079;48.686;15.598;2023-04-06T10:39:00;6.22;;;1.65;;
60211;SDS011;46079;48.686;15.598;2023-04-06T10:43:59;5.00;;;1.50;;
60211;SDS011;46079;48.686;15.598;2023-04-06T10:46:26;5.85;;;1.77;;
60211;SDS011;46079;48.686;15.598;2023-04-06T10:48:53;6.47;;;1.75;;
60211;SDS011;46079;48.686;15.598;2023-04-06T10:51:19;5.60;;;1.63;;
60211;SDS011;46079;48.686;15.598;2023-04-06T10:53:52;5.60;;;1.60;;
60211;SDS011;46079;48.686;15.598;2023-04-06T10:56:21;5.45;;;1.67;;
60211;SDS011;46079;48.686;15.598;2023-04-06T10:58:48;7.00;;;1.60;;
60211;SDS011;46079;48.686;15.598;2023-04-06T11:01:16;5.25;;;1.52;;
60211;SDS011;46079;48.686;15.598;2023-04-06T11:03:44;5.50;;;1.60;;
60211;SDS011;46079;48.686;15.598;2023-04-06T11:06:10;4.90;;;1.48;;
60211;SDS011;46079;48.686;15.598;2023-04-06T11:08:36;4.57;;;1.50;;
60211;SDS011;46079;48.686;15.598;2023-04-06T11:11:09;4.78;;;1.50;;
60211;SDS011;46079;48.686;15.598;2023-04-06T11:13:41;4.93;;;1.48;;
60211;SDS011;46079;48.686;15.598;2023-04-06T11:16:26;5.18;;;1.52;;
60211;SDS011;46079;48.686;15.598;2023-04-06T11:19:02;4.30;;;1.40;;
60211;SDS011;46079;48.686;15.598;2023-04-06T11:26:46;4.78;;;1.48;;
60211;SDS011;46079;48.686;15.598;2023-04-06T11:29:15;5.28;;;1.58;;
60211;SDS011;46079;48.686;15.598;2023-04-06T11:31:44;4.43;;;1.42;;
60211;SDS011;46079;48.686;15.598;2023-04-06T11:34:23;5.47;;;1.60;;
60211;SDS011;46079;48.686;15.598;2023-04-06T11:36:59;4.95;;;1.40;;
60211;SDS011;46079;48.686;15.598;2023-04-06T11:39:27;4.05;;;1.30;;
60211;SDS011;46079;48.686;15.598;2023-04-06T11:41:57;5.18;;;1.50;;
60211;SDS011;46079;48.686;15.598;2023-04-06T11:44:39;5.50;;;1.60;;
60211;SDS011;46079;48.686;15.598;2023-04-06T11:47:10;4.75;;;1.40;;
60211;SDS011;46079;48.686;15.598;2023-04-06T11:49:37;4.63;;;1.50;;
60211;SDS011;46079;48.686;15.598;2023-04-06T11:52:41;4.40;;;1.38;;
60211;SDS011;46079;48.686;15.598;2023-04-06T11:55:09;4.85;;;1.50;;
60211;SDS011;46079;48.686;15.598;2023-04-06T11:57:36;5.03;;;1.50;;
60211;SDS011;46079;48.686;15.598;2023-04-06T12:00:02;4.20;;;1.20;;
60211;SDS011;46079;48.686;15.598;2023-04-06T12:02:27;4.35;;;1.40;;
60211;SDS011;46079;48.686;15.598;2023-04-06T12:04:53;5.03;;;1.52;;
60211;SDS011;46079;48.686;15.598;2023-04-06T12:07:18;4.03;;;1.23;;
60211;SDS011;46079;48.686;15.598;2023-04-06T12:09:44;4.75;;;1.40;;
60211;SDS011;46079;48.686;15.598;2023-04-06T12:12:09;4.97;;;1.38;;
60211;SDS011;46079;48.686;15.598;2023-04-06T12:14:35;4.93;;;1.50;;
60211;SDS011;46079;48.686;15.598;2023-04-06T12:17:01;5.88;;;1.50;;
60211;SDS011;46079;48.686;15.598;2023-04-06T12:19:26;5.03;;;1.40;;
60211;SDS011;46079;48.686;15.598;2023-04-06T12:21:52;4.35;;;1.35;;
60211;SDS011;46079;48.686;15.598;2023-04-06T12:24:19;5.38;;;1.60;;
60211;SDS011;46079;48.686;15.598;2023-04-06T12:26:44;4.68;;;1.40;;
60211;SDS011;46079;48.686;15.598;2023-04-06T12:29:10;4.97;;;1.50;;
60211;SDS011;46079;48.686;15.598;2023-04-06T12:31:38;3.75;;;1.38;;
60211;SDS011;46079;48.686;15.598;2023-04-06T12:34:05;4.30;;;1.40;;
60211;SDS011;46079;48.686;15.598;2023-04-06T12:36:31;6.22;;;1.35;;
60211;SDS011;46079;48.686;15.598;2023-04-06T12:38:57;4.65;;;1.38;;
60211;SDS011;46079;48.686;15.598;2023-04-06T12:41:22;5.50;;;1.40;;
60211;SDS011;46079;48.686;15.598;2023-04-06T12:43:48;4.63;;;1.50;;
60211;SDS011;46079;48.686;15.598;2023-04-06T12:46:14;4.10;;;1.25;;
60211;SDS011;46079;48.686;15.598;2023-04-06T12:48:40;4.90;;;1.30;;
60211;SDS011;46079;48.686;15.598;2023-04-06T12:51:06;3.80;;;1.35;;
60211;SDS011;46079;48.686;15.598;2023-04-06T12:53:32;4.18;;;1.33;;
60211;SDS011;46079;48.686;15.598;2023-04-06T12:55:59;6.07;;;1.38;;
60211;SDS011;46079;48.686;15.598;2023-04-06T12:58:25;4.97;;;1.40;;
60211;SDS011;46079;48.686;15.598;2023-04-06T13:00:55;4.85;;;1.38;;
60211;SDS011;46079;48.686;15.598;2023-04-06T13:03:22;5.15;;;1.55;;
60211;SDS011;46079;48.686;15.598;2023-04-06T13:05:51;5.05;;;1.50;;
60211;SDS011;46079;48.686;15.598;2023-04-06T13:08:17;4.63;;;1.40;;
60211;SDS011;46079;48.686;15.598;2023-04-06T13:10:47;4.80;;;1.25;;
60211;SDS011;46079;48.686;15.598;2023-04-06T13:13:22;4.75;;;1.48;;
60211;SDS011;46079;48.686;15.598;2023-04-06T13:15:48;4.50;;;1.30;;
60211;SDS011;46079;48.686;15.598;2023-04-06T13:18:14;5.35;;;1.50;;
60211;SDS011;46079;48.686;15.598;2023-04-06T13:20:41;5.38;;;1.48;;
60211;SDS011;46079;48.686;15.598;2023-04-06T13:23:07;4.20;;;1.33;;
60211;SDS011;46079;48.686;15.598;2023-04-06T13:25:32;4.20;;;1.35;;
60211;SDS011;46079;48.686;15.598;2023-04-06T13:27:58;5.43;;;1.67;;
60211;SDS011;46079;48.686;15.598;2023-04-06T13:30:24;4.40;;;1.38;;
60211;SDS011;46079;48.686;15.598;2023-04-06T13:32:50;4.78;;;1.38;;
60211;SDS011;46079;48.686;15.598;2023-04-06T13:35:15;5.65;;;1.63;;
60211;SDS011;46079;48.686;15.598;2023-04-06T13:37:41;4.63;;;1.30;;
60211;SDS011;46079;48.686;15.598;2023-04-06T13:40:07;5.13;;;1.42;;
60211;SDS011;46079;48.686;15.598;2023-04-06T13:42:33;5.03;;;1.48;;
60211;SDS011;46079;48.686;15.598;2023-04-06T13:45:00;5.70;;;1.60;;
60211;SDS011;46079;48.686;15.598;2023-04-06T13:47:26;5.05;;;1.45;;
60211;SDS011;46079;48.686;15.598;2023-04-06T13:49:52;3.72;;;1.10;;
60211;SDS011;46079;48.686;15.598;2023-04-06T13:52:21;4.55;;;1.42;;
60211;SDS011;46079;48.686;15.598;2023-04-06T13:54:48;5.38;;;1.50;;
60211;SDS011;46079;48.686;15.598;2023-04-06T13:57:14;4.28;;;1.30;;
60211;SDS011;46079;48.686;15.598;2023-04-06T13:59:39;5.38;;;1.40;;
60211;SDS011;46079;48.686;15.598;2023-04-06T14:02:06;5.53;;;1.40;;
60211;SDS011;46079;48.686;15.598;2023-04-06T14:04:33;4.28;;;1.27;;
60211;SDS011;46079;48.686;15.598;2023-04-06T14:06:59;6.75;;;1.50;;
60211;SDS011;46079;48.686;15.598;2023-04-06T14:09:26;6.15;;;1.63;;
60211;SDS011;46079;48.686;15.598;2023-04-06T14:11:52;4.50;;;1.40;;
60211;SDS011;46079;48.686;15.598;2023-04-06T14:14:18;5.28;;;1.55;;
60211;SDS011;46079;48.686;15.598;2023-04-06T14:16:44;4.65;;;1.40;;
60211;SDS011;46079;48.686;15.598;2023-04-06T14:19:13;4.85;;;1.40;;
60211;SDS011;46079;48.686;15.598;2023-04-06T14:21:44;5.93;;;1.60;;
60211;SDS011;46079;48.686;15.598;2023-04-06T14:24:10;5.03;;;1.40;;
60211;SDS011;46079;48.686;15.598;2023-04-06T14:26:36;5.00;;;1.40;;
60211;SDS011;46079;48.686;15.598;2023-04-06T14:29:03;5.35;;;1.40;;
60211;SDS011;46079;48.686;15.598;2023-04-06T14:31:29;5.63;;;1.40;;
60211;SDS011;46079;48.686;15.598;2023-04-06T14:33:55;5.20;;;1.30;;
60211;SDS011;46079;48.686;15.598;2023-04-06T14:36:20;4.78;;;1.40;;
60211;SDS011;46079;48.686;15.598;2023-04-06T14:38:46;5.25;;;1.50;;
60211;SDS011;46079;48.686;15.598;2023-04-06T14:41:18;5.40;;;1.60;;
60211;SDS011;46079;48.686;15.598;2023-04-06T14:43:47;5.57;;;1.50;;
60211;SDS011;46079;48.686;15.598;2023-04-06T14:46:13;4.03;;;1.20;;
60211;SDS011;46079;48.686;15.598;2023-04-06T14:48:40;4.90;;;1.50;;
60211;SDS011;46079;48.686;15.598;2023-04-06T14:51:06;4.00;;;1.30;;